sensor_id;sensor_type;location;lat;lon;timestamp;P1;durP1;ratioP1;P2;durP2;ratioP2
16262;SDS011;8239;48.594;8.598;2023-07-09T00:01:11;4.97;;;4.35;;
16262;SDS011;8239;48.594;8.598;2023-07-09T00:03:42;5.25;;;4.38;;
16262;SDS011;8239;48.594;8.598;2023-07-09T00:06:09;5.78;;;4.50;;
16262;SDS011;8239;48.594;8.598;2023-07-09T00:08:38;6.00;;;4.40;;
16262;SDS011;8239;48.594;8.598;2023-07-09T00:11:09;5.95;;;4.30;;
16262;SDS011;8239;48.594;8.598;2023-07-09T00:13:36;6.22;;;4.70;;
16262;SDS011;8239;48.594;8.598;2023-07-09T00:16:07;6.03;;;4.60;;
16262;SDS011;8239;48.594;8.598;2023-07-09T00:18:39;4.97;;;4.13;;
16262;SDS011;8239;48.594;8.598;2023-07-09T00:21:06;4.80;;;4.30;;
16262;SDS011;8239;48.594;8.598;2023-07-09T00:23:33;6.55;;;4.57;;
16262;SDS011;8239;48.594;8.598;2023-07-09T00:26:00;5.32;;;4.28;;
16262;SDS011;8239;48.594;8.598;2023-07-09T00:28:28;6.90;;;4.80;;
16262;SDS011;8239;48.594;8.598;2023-07-09T00:30:55;6.10;;;5.05;;
16262;SDS011;8239;48.594;8.598;2023-07-09T00:33:24;6.18;;;4.90;;
16262;SDS011;8239;48.594;8.598;2023-07-09T00:35:56;6.05;;;4.85;;
16262;SDS011;8239;48.594;8.598;2023-07-09T00:38:24;5.80;;;4.60;;
16262;SDS011;8239;48.594;8.598;2023-07-09T00:40:59;8.23;;;5.22;;
16262;SDS011;8239;48.594;8.598;2023-07-09T00:43:29;7.22;;;5.35;;
16262;SDS011;8239;48.594;8.598;2023-07-09T00:46:10;6.45;;;5.10;;
16262;SDS011;8239;48.594;8.598;2023-07-09T00:48:43;6.97;;;4.90;;
16262;SDS011;8239;48.594;8.598;2023-07-09T00:51:12;5.43;;;4.80;;
16262;SDS011;8239;48.594;8.598;2023-07-09T00:53:41;6.32;;;4.65;;
16262;SDS011;8239;48.594;8.598;2023-07-09T00:56:12;5.43;;;4.45;;
16262;SDS011;8239;48.594;8.598;2023-07-09T00:58:45;6.60;;;4.40;;
16262;SDS011;8239;48.594;8.598;2023-07-09T01:01:13;6.32;;;4.80;;
16262;SDS011;8239;48.594;8.598;2023-07-09T01:03:45;4.95;;;4.28;;
16262;SDS011;8239;48.594;8.598;2023-07-09T01:06:15;5.18;;;4.68;;
16262;SDS011;8239;48.594;8.598;2023-07-09T01:08:50;7.13;;;4.90;;
16262;SDS011;8239;48.594;8.598;2023-07-09T01:11:19;5.43;;;4.78;;
16262;SDS011;8239;48.594;8.598;2023-07-09T01:13:47;6.18;;;5.05;;
16262;SDS011;8239;48.594;8.598;2023-07-09T01:16:16;6.15;;;5.28;;
16262;SDS011;8239;48.594;8.598;2023-07-09T01:18:44;7.25;;;5.13;;
16262;SDS011;8239;48.594;8.598;2023-07-09T01:21:13;7.85;;;5.40;;
16262;SDS011;8239;48.594;8.598;2023-07-09T01:23:42;5.05;;;4.55;;
16262;SDS011;8239;48.594;8.598;2023-07-09T01:26:10;5.47;;;4.95;;
16262;SDS011;8239;48.594;8.598;2023-07-09T01:28:38;6.20;;;5.18;;
16262;SDS011;8239;48.594;8.598;2023-07-09T01:31:07;7.75;;;5.95;;
16262;SDS011;8239;48.594;8.598;2023-07-09T01:33:34;8.40;;;5.88;;
16262;SDS011;8239;48.594;8.598;2023-07-09T01:36:01;6.55;;;5.85;;
16262;SDS011;8239;48.594;8.598;2023-07-09T01:38:30;8.88;;;6.55;;
16262;SDS011;8239;48.594;8.598;2023-07-09T01:40:57;9.38;;;6.65;;
16262;SDS011;8239;48.594;8.598;2023-07-09T01:43:25;6.63;;;5.85;;
16262;SDS011;8239;48.594;8.598;2023-07-09T01:45:53;7.47;;;5.18;;
16262;SDS011;8239;48.594;8.598;2023-07-09T01:48:23;7.53;;;5.47;;
16262;SDS011;8239;48.594;8.598;2023-07-09T01:50:51;6.55;;;5.25;;
16262;SDS011;8239;48.594;8.598;2023-07-09T01:53:20;8.18;;;5.35;;
16262;SDS011;8239;48.594;8.598;2023-07-09T01:55:51;6.22;;;5.22;;
16262;SDS011;8239;48.594;8.598;2023-07-09T01:58:19;5.90;;;5.15;;
16262;SDS011;8239;48.594;8.598;2023-07-09T02:00:51;6.43;;;5.15;;
16262;SDS011;8239;48.594;8.598;2023-07-09T02:03:28;6.90;;;5.43;;
16262;SDS011;8239;48.594;8.598;2023-07-09T02:06:34;6.95;;;6.10;;
16262;SDS011;8239;48.594;8.598;2023-07-09T02:09:30;6.93;;;6.15;;
16262;SDS011;8239;48.594;8.598;2023-07-09T02:12:09;9.77;;;5.88;;
16262;SDS011;8239;48.594;8.598;2023-07-09T02:14:41;7.82;;;5.85;;
16262;SDS011;8239;48.594;8.598;2023-07-09T02:17:37;6.32;;;5.40;;
16262;SDS011;8239;48.594;8.598;2023-07-09T02:20:30;6.82;;;5.03;;
16262;SDS011;8239;48.594;8.598;2023-07-09T02:23:12;6.15;;;5.07;;
16262;SDS011;8239;48.594;8.598;2023-07-09T02:25:45;8.00;;;5.57;;
16262;SDS011;8239;48.594;8.598;2023-07-09T02:28:24;7.25;;;5.57;;
16262;SDS011;8239;48.594;8.598;2023-07-09T02:31:10;7.15;;;5.85;;
16262;SDS011;8239;48.594;8.598;2023-07-09T02:33:41;7.13;;;6.20;;
16262;SDS011;8239;48.594;8.598;2023-07-09T02:36:11;8.23;;;5.93;;
16262;SDS011;8239;48.594;8.598;2023-07-09T02:38:49;6.85;;;5.72;;
16262;SDS011;8239;48.594;8.598;2023-07-09T02:41:31;7.25;;;5.40;;
16262;SDS011;8239;48.594;8.598;2023-07-09T02:44:23;6.15;;;4.82;;
16262;SDS011;8239;48.594;8.598;2023-07-09T02:47:06;5.85;;;5.25;;
16262;SDS011;8239;48.594;8.598;2023-07-09T02:52:38;7.13;;;5.38;;
16262;SDS011;8239;48.594;8.598;2023-07-09T02:55:19;7.78;;;5.63;;
16262;SDS011;8239;48.594;8.598;2023-07-09T02:58:10;6.25;;;5.50;;
16262;SDS011;8239;48.594;8.598;2023-07-09T03:00:41;5.82;;;5.20;;
16262;SDS011;8239;48.594;8.598;2023-07-09T03:03:08;9.07;;;5.28;;
16262;SDS011;8239;48.594;8.598;2023-07-09T03:06:01;7.13;;;5.32;;
16262;SDS011;8239;48.594;8.598;2023-07-09T03:08:34;7.80;;;5.15;;
16262;SDS011;8239;48.594;8.598;2023-07-09T03:11:13;5.50;;;4.95;;
16262;SDS011;8239;48.594;8.598;2023-07-09T03:13:48;6.15;;;5.28;;
16262;SDS011;8239;48.594;8.598;2023-07-09T03:16:36;7.07;;;5.60;;
16262;SDS011;8239;48.594;8.598;2023-07-09T03:19:09;6.68;;;5.53;;
16262;SDS011;8239;48.594;8.598;2023-07-09T03:21:48;6.68;;;5.75;;
16262;SDS011;8239;48.594;8.598;2023-07-09T03:24:48;6.65;;;5.20;;
16262;SDS011;8239;48.594;8.598;2023-07-09T03:27:34;6.05;;;5.25;;
16262;SDS011;8239;48.594;8.598;2023-07-09T03:30:18;7.82;;;5.35;;
16262;SDS011;8239;48.594;8.598;2023-07-09T03:32:59;6.20;;;5.25;;
16262;SDS011;8239;48.594;8.598;2023-07-09T03:35:44;8.40;;;5.15;;
16262;SDS011;8239;48.594;8.598;2023-07-09T03:38:16;6.57;;;5.30;;
16262;SDS011;8239;48.594;8.598;2023-07-09T03:40:58;10.05;;;6.00;;
16262;SDS011;8239;48.594;8.598;2023-07-09T03:43:35;8.10;;;5.47;;
16262;SDS011;8239;48.594;8.598;2023-07-09T03:46:02;7.10;;;5.10;;
16262;SDS011;8239;48.594;8.598;2023-07-09T03:48:30;5.88;;;5.28;;
16262;SDS011;8239;48.594;8.598;2023-07-09T03:50:57;6.97;;;5.35;;
16262;SDS011;8239;48.594;8.598;2023-07-09T03:53:24;7.32;;;5.15;;
16262;SDS011;8239;48.594;8.598;2023-07-09T03:55:52;7.45;;;5.30;;
16262;SDS011;8239;48.594;8.598;2023-07-09T03:58:19;7.55;;;5.05;;
16262;SDS011;8239;48.594;8.598;2023-07-09T04:00:46;7.57;;;5.50;;
16262;SDS011;8239;48.594;8.598;2023-07-09T04:03:14;7.40;;;5.43;;
16262;SDS011;8239;48.594;8.598;2023-07-09T04:05:42;8.07;;;5.38;;
16262;SDS011;8239;48.594;8.598;2023-07-09T04:08:09;5.88;;;4.90;;
16262;SDS011;8239;48.594;8.598;2023-07-09T04:10:36;6.43;;;5.40;;
16262;SDS011;8239;48.594;8.598;2023-07-09T04:13:02;7.47;;;5.35;;
16262;SDS011;8239;48.594;8.598;2023-07-09T04:15:29;7.15;;;5.32;;
16262;SDS011;8239;48.594;8.598;2023-07-09T04:17:56;7.50;;;5.32;;
16262;SDS011;8239;48.594;8.598;2023-07-09T04:20:23;5.82;;;5.32;;
16262;SDS011;8239;48.594;8.598;2023-07-09T04:22:52;8.27;;;5.40;;
16262;SDS011;8239;48.594;8.598;2023-07-09T04:25:19;9.07;;;5.38;;
16262;SDS011;8239;48.594;8.598;2023-07-09T04:27:47;6.45;;;5.07;;
16262;SDS011;8239;48.594;8.598;2023-07-09T04:30:14;7.13;;;5.28;;
16262;SDS011;8239;48.594;8.598;2023-07-09T04:32:42;6.82;;;5.38;;
16262;SDS011;8239;48.594;8.598;2023-07-09T04:35:09;6.97;;;5.38;;
16262;SDS011;8239;48.594;8.598;2023-07-09T04:37:37;5.57;;;5.07;;
16262;SDS011;8239;48.594;8.598;2023-07-09T04:40:07;6.97;;;5.35;;
16262;SDS011;8239;48.594;8.598;2023-07-09T04:42:35;6.13;;;5.50;;
16262;SDS011;8239;48.594;8.598;2023-07-09T04:45:04;7.18;;;5.55;;
16262;SDS011;8239;48.594;8.598;2023-07-09T04:47:32;6.05;;;4.95;;
16262;SDS011;8239;48.594;8.598;2023-07-09T04:49:59;7.28;;;5.03;;
16262;SDS011;8239;48.594;8.598;2023-07-09T04:52:26;7.40;;;5.22;;
16262;SDS011;8239;48.594;8.598;2023-07-09T04:54:53;4.95;;;4.45;;
16262;SDS011;8239;48.594;8.598;2023-07-09T04:57:21;6.25;;;5.13;;
16262;SDS011;8239;48.594;8.598;2023-07-09T04:59:49;5.53;;;4.82;;
16262;SDS011;8239;48.594;8.598;2023-07-09T05:02:15;8.95;;;5.07;;
16262;SDS011;8239;48.594;8.598;2023-07-09T05:04:42;10.07;;;5.00;;
16262;SDS011;8239;48.594;8.598;2023-07-09T05:07:09;6.70;;;4.90;;
16262;SDS011;8239;48.594;8.598;2023-07-09T05:09:36;7.57;;;4.93;;
16262;SDS011;8239;48.594;8.598;2023-07-09T05:12:03;5.40;;;4.63;;
16262;SDS011;8239;48.594;8.598;2023-07-09T05:14:32;6.18;;;4.90;;
16262;SDS011;8239;48.594;8.598;2023-07-09T05:16:59;5.53;;;5.03;;
16262;SDS011;8239;48.594;8.598;2023-07-09T05:19:26;5.35;;;4.60;;
16262;SDS011;8239;48.594;8.598;2023-07-09T05:21:53;5.95;;;4.90;;
16262;SDS011;8239;48.594;8.598;2023-07-09T05:24:20;5.85;;;5.00;;
16262;SDS011;8239;48.594;8.598;2023-07-09T05:26:47;5.97;;;5.05;;
16262;SDS011;8239;48.594;8.598;2023-07-09T05:29:14;7.78;;;4.82;;
16262;SDS011;8239;48.594;8.598;2023-07-09T05:31:42;5.38;;;4.85;;
16262;SDS011;8239;48.594;8.598;2023-07-09T05:34:09;6.82;;;4.82;;
16262;SDS011;8239;48.594;8.598;2023-07-09T05:36:36;5.88;;;4.82;;
16262;SDS011;8239;48.594;8.598;2023-07-09T05:39:03;7.10;;;4.72;;
16262;SDS011;8239;48.594;8.598;2023-07-09T05:41:30;5.63;;;4.63;;
16262;SDS011;8239;48.594;8.598;2023-07-09T05:43:57;5.47;;;4.97;;
16262;SDS011;8239;48.594;8.598;2023-07-09T05:46:23;5.53;;;4.90;;
16262;SDS011;8239;48.594;8.598;2023-07-09T05:48:52;5.32;;;4.82;;
16262;SDS011;8239;48.594;8.598;2023-07-09T05:51:19;5.93;;;4.57;;
16262;SDS011;8239;48.594;8.598;2023-07-09T05:53:46;6.70;;;5.03;;
16262;SDS011;8239;48.594;8.598;2023-07-09T05:56:13;5.07;;;4.57;;
16262;SDS011;8239;48.594;8.598;2023-07-09T05:58:40;6.15;;;4.97;;
16262;SDS011;8239;48.594;8.598;2023-07-09T06:01:07;4.97;;;4.47;;
16262;SDS011;8239;48.594;8.598;2023-07-09T06:03:34;5.85;;;4.60;;
16262;SDS011;8239;48.594;8.598;2023-07-09T06:06:02;6.38;;;4.80;;
16262;SDS011;8239;48.594;8.598;2023-07-09T06:08:31;6.57;;;5.00;;
16262;SDS011;8239;48.594;8.598;2023-07-09T06:10:59;5.50;;;4.63;;
16262;SDS011;8239;48.594;8.598;2023-07-09T06:13:28;6.15;;;4.70;;
16262;SDS011;8239;48.594;8.598;2023-07-09T06:15:56;5.35;;;4.70;;
16262;SDS011;8239;48.594;8.598;2023-07-09T06:18:24;5.18;;;4.63;;
16262;SDS011;8239;48.594;8.598;2023-07-09T06:20:54;4.88;;;4.03;;
16262;SDS011;8239;48.594;8.598;2023-07-09T06:23:24;4.78;;;4.35;;
16262;SDS011;8239;48.594;8.598;2023-07-09T06:25:51;4.82;;;4.07;;
16262;SDS011;8239;48.594;8.598;2023-07-09T06:28:19;5.00;;;4.50;;
16262;SDS011;8239;48.594;8.598;2023-07-09T06:30:48;5.93;;;4.35;;
16262;SDS011;8239;48.594;8.598;2023-07-09T06:33:16;5.47;;;4.32;;
16262;SDS011;8239;48.594;8.598;2023-07-09T06:35:47;5.90;;;4.68;;
16262;SDS011;8239;48.594;8.598;2023-07-09T06:38:15;4.63;;;4.22;;
16262;SDS011;8239;48.594;8.598;2023-07-09T06:40:43;5.40;;;4.20;;
16262;SDS011;8239;48.594;8.598;2023-07-09T06:43:11;5.30;;;4.78;;
16262;SDS011;8239;48.594;8.598;2023-07-09T06:45:38;5.47;;;4.20;;
16262;SDS011;8239;48.594;8.598;2023-07-09T06:48:14;5.38;;;4.57;;
16262;SDS011;8239;48.594;8.598;2023-07-09T06:50:41;6.47;;;5.15;;
16262;SDS011;8239;48.594;8.598;2023-07-09T06:53:09;4.82;;;4.32;;
16262;SDS011;8239;48.594;8.598;2023-07-09T06:55:35;4.50;;;4.10;;
16262;SDS011;8239;48.594;8.598;2023-07-09T06:58:04;5.32;;;4.35;;
16262;SDS011;8239;48.594;8.598;2023-07-09T07:00:31;5.75;;;4.38;;
16262;SDS011;8239;48.594;8.598;2023-07-09T07:02:59;5.00;;;4.50;;
16262;SDS011;8239;48.594;8.598;2023-07-09T07:05:26;4.50;;;4.10;;
16262;SDS011;8239;48.594;8.598;2023-07-09T07:07:53;5.30;;;3.90;;
16262;SDS011;8239;48.594;8.598;2023-07-09T07:10:20;5.03;;;3.90;;
16262;SDS011;8239;48.594;8.598;2023-07-09T07:12:47;8.18;;;4.13;;
16262;SDS011;8239;48.594;8.598;2023-07-09T07:15:16;4.93;;;4.00;;
16262;SDS011;8239;48.594;8.598;2023-07-09T07:17:44;4.65;;;3.97;;
16262;SDS011;8239;48.594;8.598;2023-07-09T07:20:12;4.72;;;4.20;;
16262;SDS011;8239;48.594;8.598;2023-07-09T07:22:40;4.45;;;4.05;;
16262;SDS011;8239;48.594;8.598;2023-07-09T07:25:07;4.57;;;4.18;;
16262;SDS011;8239;48.594;8.598;2023-07-09T07:27:35;5.20;;;4.30;;
16262;SDS011;8239;48.594;8.598;2023-07-09T07:30:03;4.32;;;3.83;;
16262;SDS011;8239;48.594;8.598;2023-07-09T07:32:35;4.18;;;3.88;;
16262;SDS011;8239;48.594;8.598;2023-07-09T07:35:03;4.50;;;4.10;;
16262;SDS011;8239;48.594;8.598;2023-07-09T07:37:31;4.00;;;3.67;;
16262;SDS011;8239;48.594;8.598;2023-07-09T07:39:58;4.28;;;3.97;;
16262;SDS011;8239;48.594;8.598;2023-07-09T07:42:25;4.45;;;4.05;;
16262;SDS011;8239;48.594;8.598;2023-07-09T07:44:52;4.22;;;3.83;;
16262;SDS011;8239;48.594;8.598;2023-07-09T07:47:19;4.40;;;4.10;;
16262;SDS011;8239;48.594;8.598;2023-07-09T07:49:47;4.63;;;4.13;;
16262;SDS011;8239;48.594;8.598;2023-07-09T07:52:14;4.13;;;3.83;;
16262;SDS011;8239;48.594;8.598;2023-07-09T07:54:41;4.30;;;3.85;;
16262;SDS011;8239;48.594;8.598;2023-07-09T07:57:08;4.70;;;4.00;;
16262;SDS011;8239;48.594;8.598;2023-07-09T07:59:36;5.00;;;4.05;;
16262;SDS011;8239;48.594;8.598;2023-07-09T08:02:03;4.45;;;4.05;;
16262;SDS011;8239;48.594;8.598;2023-07-09T08:04:32;4.57;;;4.10;;
16262;SDS011;8239;48.594;8.598;2023-07-09T08:07:00;4.20;;;3.80;;
16262;SDS011;8239;48.594;8.598;2023-07-09T08:09:27;4.15;;;3.58;;
16262;SDS011;8239;48.594;8.598;2023-07-09T08:11:54;4.20;;;3.85;;
16262;SDS011;8239;48.594;8.598;2023-07-09T08:14:23;4.85;;;4.30;;
16262;SDS011;8239;48.594;8.598;2023-07-09T08:16:50;4.10;;;3.67;;
16262;SDS011;8239;48.594;8.598;2023-07-09T08:19:18;4.60;;;3.80;;
16262;SDS011;8239;48.594;8.598;2023-07-09T08:21:45;4.03;;;3.65;;
16262;SDS011;8239;48.594;8.598;2023-07-09T08:24:13;4.80;;;4.13;;
16262;SDS011;8239;48.594;8.598;2023-07-09T08:26:40;4.50;;;4.10;;
16262;SDS011;8239;48.594;8.598;2023-07-09T08:29:07;4.55;;;4.15;;
16262;SDS011;8239;48.594;8.598;2023-07-09T08:31:35;3.60;;;3.40;;
16262;SDS011;8239;48.594;8.598;2023-07-09T08:34:02;4.22;;;3.83;;
16262;SDS011;8239;48.594;8.598;2023-07-09T08:36:31;3.78;;;3.47;;
16262;SDS011;8239;48.594;8.598;2023-07-09T08:38:58;4.07;;;3.78;;
16262;SDS011;8239;48.594;8.598;2023-07-09T08:41:35;3.97;;;3.53;;
16262;SDS011;8239;48.594;8.598;2023-07-09T08:44:25;3.95;;;3.58;;
16262;SDS011;8239;48.594;8.598;2023-07-09T08:47:12;4.43;;;3.40;;
16262;SDS011;8239;48.594;8.598;2023-07-09T08:49:46;3.72;;;3.40;;
16262;SDS011;8239;48.594;8.598;2023-07-09T08:52:18;3.97;;;3.67;;
16262;SDS011;8239;48.594;8.598;2023-07-09T08:54:51;3.60;;;3.30;;
16262;SDS011;8239;48.594;8.598;2023-07-09T08:57:23;3.83;;;3.53;;
16262;SDS011;8239;48.594;8.598;2023-07-09T08:59:53;3.45;;;3.22;;
16262;SDS011;8239;48.594;8.598;2023-07-09T09:02:29;3.45;;;3.15;;
16262;SDS011;8239;48.594;8.598;2023-07-09T09:04:59;3.30;;;2.95;;
16262;SDS011;8239;48.594;8.598;2023-07-09T09:07:31;3.83;;;3.17;;
16262;SDS011;8239;48.594;8.598;2023-07-09T09:10:05;3.50;;;2.90;;
16262;SDS011;8239;48.594;8.598;2023-07-09T09:12:38;3.40;;;3.10;;
16262;SDS011;8239;48.594;8.598;2023-07-09T09:15:10;4.13;;;3.22;;
16262;SDS011;8239;48.594;8.598;2023-07-09T09:17:41;3.33;;;3.00;;
16262;SDS011;8239;48.594;8.598;2023-07-09T09:20:09;3.03;;;2.60;;
16262;SDS011;8239;48.594;8.598;2023-07-09T09:22:44;3.22;;;2.95;;
16262;SDS011;8239;48.594;8.598;2023-07-09T09:25:18;2.83;;;2.53;;
16262;SDS011;8239;48.594;8.598;2023-07-09T09:27:53;2.85;;;2.63;;
16262;SDS011;8239;48.594;8.598;2023-07-09T09:30:21;2.88;;;2.50;;
16262;SDS011;8239;48.594;8.598;2023-07-09T09:32:50;3.65;;;2.80;;
16262;SDS011;8239;48.594;8.598;2023-07-09T09:35:25;2.95;;;2.75;;
16262;SDS011;8239;48.594;8.598;2023-07-09T09:37:54;4.55;;;2.35;;
16262;SDS011;8239;48.594;8.598;2023-07-09T09:40:22;2.70;;;2.50;;
16262;SDS011;8239;48.594;8.598;2023-07-09T09:42:50;2.55;;;2.45;;
16262;SDS011;8239;48.594;8.598;2023-07-09T09:45:24;2.80;;;2.60;;
16262;SDS011;8239;48.594;8.598;2023-07-09T09:47:57;3.08;;;2.80;;
16262;SDS011;8239;48.594;8.598;2023-07-09T09:50:26;2.85;;;2.60;;
16262;SDS011;8239;48.594;8.598;2023-07-09T09:52:58;2.67;;;2.22;;
16262;SDS011;8239;48.594;8.598;2023-07-09T09:55:28;2.20;;;2.10;;
16262;SDS011;8239;48.594;8.598;2023-07-09T09:57:57;2.60;;;2.40;;
16262;SDS011;8239;48.594;8.598;2023-07-09T10:00:27;2.58;;;2.30;;
16262;SDS011;8239;48.594;8.598;2023-07-09T10:02:58;2.50;;;2.20;;
16262;SDS011;8239;48.594;8.598;2023-07-09T10:05:28;2.13;;;2.03;;
16262;SDS011;8239;48.594;8.598;2023-07-09T10:07:59;2.67;;;2.47;;
16262;SDS011;8239;48.594;8.598;2023-07-09T10:10:34;2.75;;;2.55;;
16262;SDS011;8239;48.594;8.598;2023-07-09T10:13:04;2.60;;;2.40;;
16262;SDS011;8239;48.594;8.598;2023-07-09T10:15:40;2.40;;;2.20;;
16262;SDS011;8239;48.594;8.598;2023-07-09T10:18:14;2.63;;;2.40;;
16262;SDS011;8239;48.594;8.598;2023-07-09T10:20:53;3.03;;;2.53;;
16262;SDS011;8239;48.594;8.598;2023-07-09T10:23:32;2.65;;;2.40;;
16262;SDS011;8239;48.594;8.598;2023-07-09T10:26:13;3.05;;;2.75;;
16262;SDS011;8239;48.594;8.598;2023-07-09T10:28:47;3.20;;;2.60;;
16262;SDS011;8239;48.594;8.598;2023-07-09T10:31:29;2.85;;;2.65;;
16262;SDS011;8239;48.594;8.598;2023-07-09T10:34:04;3.13;;;2.80;;
16262;SDS011;8239;48.594;8.598;2023-07-09T10:36:44;3.05;;;2.80;;
16262;SDS011;8239;48.594;8.598;2023-07-09T10:39:19;3.10;;;2.80;;
16262;SDS011;8239;48.594;8.598;2023-07-09T10:41:52;3.15;;;2.67;;
16262;SDS011;8239;48.594;8.598;2023-07-09T10:44:25;4.43;;;2.95;;
16262;SDS011;8239;48.594;8.598;2023-07-09T10:47:00;3.30;;;3.00;;
16262;SDS011;8239;48.594;8.598;2023-07-09T10:49:31;2.95;;;2.70;;
16262;SDS011;8239;48.594;8.598;2023-07-09T10:52:03;3.45;;;3.00;;
16262;SDS011;8239;48.594;8.598;2023-07-09T10:54:34;3.40;;;3.10;;
16262;SDS011;8239;48.594;8.598;2023-07-09T10:57:09;3.35;;;3.05;;
16262;SDS011;8239;48.594;8.598;2023-07-09T10:59:41;3.15;;;2.90;;
16262;SDS011;8239;48.594;8.598;2023-07-09T11:02:15;3.70;;;3.22;;
16262;SDS011;8239;48.594;8.598;2023-07-09T11:04:46;3.90;;;3.20;;
16262;SDS011;8239;48.594;8.598;2023-07-09T11:07:18;4.15;;;3.40;;
16262;SDS011;8239;48.594;8.598;2023-07-09T11:09:49;4.13;;;3.15;;
16262;SDS011;8239;48.594;8.598;2023-07-09T11:12:21;3.45;;;3.10;;
16262;SDS011;8239;48.594;8.598;2023-07-09T11:14:54;3.40;;;3.10;;
16262;SDS011;8239;48.594;8.598;2023-07-09T11:17:26;3.35;;;3.05;;
16262;SDS011;8239;48.594;8.598;2023-07-09T11:19:56;3.25;;;2.95;;
16262;SDS011;8239;48.594;8.598;2023-07-09T11:22:25;3.72;;;3.35;;
16262;SDS011;8239;48.594;8.598;2023-07-09T11:25:06;3.45;;;3.15;;
16262;SDS011;8239;48.594;8.598;2023-07-09T11:27:34;3.45;;;3.15;;
16262;SDS011;8239;48.594;8.598;2023-07-09T11:30:18;4.82;;;3.33;;
16262;SDS011;8239;48.594;8.598;2023-07-09T11:32:52;3.72;;;3.03;;
16262;SDS011;8239;48.594;8.598;2023-07-09T11:35:20;3.47;;;3.17;;
16262;SDS011;8239;48.594;8.598;2023-07-09T11:37:48;3.95;;;3.55;;
16262;SDS011;8239;48.594;8.598;2023-07-09T11:40:15;4.13;;;3.72;;
16262;SDS011;8239;48.594;8.598;2023-07-09T11:42:48;4.15;;;3.17;;
16262;SDS011;8239;48.594;8.598;2023-07-09T11:45:17;3.70;;;3.20;;
16262;SDS011;8239;48.594;8.598;2023-07-09T11:47:52;5.45;;;3.35;;
16262;SDS011;8239;48.594;8.598;2023-07-09T11:50:27;4.70;;;3.60;;
16262;SDS011;8239;48.594;8.598;2023-07-09T11:52:56;4.95;;;3.40;;
16262;SDS011;8239;48.594;8.598;2023-07-09T11:55:27;5.18;;;3.13;;
16262;SDS011;8239;48.594;8.598;2023-07-09T11:58:00;3.50;;;3.20;;
16262;SDS011;8239;48.594;8.598;2023-07-09T12:00:28;3.63;;;3.00;;
16262;SDS011;8239;48.594;8.598;2023-07-09T12:03:01;4.70;;;3.45;;
16262;SDS011;8239;48.594;8.598;2023-07-09T12:05:29;5.28;;;3.40;;
16262;SDS011;8239;48.594;8.598;2023-07-09T12:07:57;4.68;;;3.20;;
16262;SDS011;8239;48.594;8.598;2023-07-09T12:10:26;3.83;;;3.33;;
16262;SDS011;8239;48.594;8.598;2023-07-09T12:12:58;3.50;;;3.03;;
16262;SDS011;8239;48.594;8.598;2023-07-09T12:15:29;4.05;;;2.85;;
16262;SDS011;8239;48.594;8.598;2023-07-09T12:17:57;3.75;;;3.00;;
16262;SDS011;8239;48.594;8.598;2023-07-09T12:20:27;4.40;;;3.42;;
16262;SDS011;8239;48.594;8.598;2023-07-09T12:22:57;5.57;;;3.05;;
16262;SDS011;8239;48.594;8.598;2023-07-09T12:25:24;3.95;;;2.90;;
16262;SDS011;8239;48.594;8.598;2023-07-09T12:27:53;4.75;;;3.00;;
16262;SDS011;8239;48.594;8.598;2023-07-09T12:30:20;5.00;;;3.47;;
16262;SDS011;8239;48.594;8.598;2023-07-09T12:32:48;3.63;;;3.05;;
16262;SDS011;8239;48.594;8.598;2023-07-09T12:35:17;4.03;;;3.20;;
16262;SDS011;8239;48.594;8.598;2023-07-09T12:37:47;4.03;;;2.75;;
16262;SDS011;8239;48.594;8.598;2023-07-09T12:40:19;4.07;;;3.00;;
16262;SDS011;8239;48.594;8.598;2023-07-09T12:42:48;3.78;;;2.67;;
16262;SDS011;8239;48.594;8.598;2023-07-09T12:45:16;3.53;;;2.80;;
16262;SDS011;8239;48.594;8.598;2023-07-09T12:47:45;3.65;;;3.25;;
16262;SDS011;8239;48.594;8.598;2023-07-09T12:50:22;3.50;;;3.20;;
16262;SDS011;8239;48.594;8.598;2023-07-09T12:52:59;3.55;;;3.00;;
16262;SDS011;8239;48.594;8.598;2023-07-09T12:55:28;3.70;;;3.03;;
16262;SDS011;8239;48.594;8.598;2023-07-09T12:57:57;5.18;;;3.15;;
16262;SDS011;8239;48.594;8.598;2023-07-09T13:00:26;6.60;;;3.22;;
16262;SDS011;8239;48.594;8.598;2023-07-09T13:02:57;4.07;;;3.38;;
16262;SDS011;8239;48.594;8.598;2023-07-09T13:05:25;4.90;;;2.67;;
16262;SDS011;8239;48.594;8.598;2023-07-09T13:07:53;4.72;;;3.20;;
16262;SDS011;8239;48.594;8.598;2023-07-09T13:10:26;5.03;;;3.30;;
16262;SDS011;8239;48.594;8.598;2023-07-09T13:12:55;5.72;;;3.70;;
16262;SDS011;8239;48.594;8.598;2023-07-09T13:15:27;3.72;;;2.97;;
16262;SDS011;8239;48.594;8.598;2023-07-09T13:18:02;4.80;;;3.20;;
16262;SDS011;8239;48.594;8.598;2023-07-09T13:20:30;4.28;;;3.22;;
16262;SDS011;8239;48.594;8.598;2023-07-09T13:22:58;4.22;;;3.15;;
16262;SDS011;8239;48.594;8.598;2023-07-09T13:25:27;3.42;;;3.10;;
16262;SDS011;8239;48.594;8.598;2023-07-09T13:27:54;3.90;;;3.20;;
16262;SDS011;8239;48.594;8.598;2023-07-09T13:30:21;3.35;;;3.03;;
16262;SDS011;8239;48.594;8.598;2023-07-09T13:32:48;3.70;;;3.28;;
16262;SDS011;8239;48.594;8.598;2023-07-09T13:35:17;4.22;;;3.20;;
16262;SDS011;8239;48.594;8.598;2023-07-09T13:37:45;5.35;;;3.08;;
16262;SDS011;8239;48.594;8.598;2023-07-09T13:40:13;3.03;;;2.80;;
16262;SDS011;8239;48.594;8.598;2023-07-09T13:42:43;3.47;;;2.90;;
16262;SDS011;8239;48.594;8.598;2023-07-09T13:45:18;3.17;;;2.88;;
16262;SDS011;8239;48.594;8.598;2023-07-09T13:47:47;3.63;;;3.30;;
16262;SDS011;8239;48.594;8.598;2023-07-09T13:50:15;3.83;;;3.20;;
16262;SDS011;8239;48.594;8.598;2023-07-09T13:52:42;5.03;;;3.17;;
16262;SDS011;8239;48.594;8.598;2023-07-09T13:55:21;3.63;;;3.33;;
16262;SDS011;8239;48.594;8.598;2023-07-09T13:57:52;3.85;;;3.38;;
16262;SDS011;8239;48.594;8.598;2023-07-09T14:00:19;4.70;;;3.38;;
16262;SDS011;8239;48.594;8.598;2023-07-09T14:02:50;4.55;;;3.08;;
16262;SDS011;8239;48.594;8.598;2023-07-09T14:05:20;3.58;;;3.20;;
16262;SDS011;8239;48.594;8.598;2023-07-09T14:08:07;4.30;;;3.30;;
16262;SDS011;8239;48.594;8.598;2023-07-09T14:10:39;4.07;;;3.35;;
16262;SDS011;8239;48.594;8.598;2023-07-09T14:13:21;3.58;;;3.05;;
16262;SDS011;8239;48.594;8.598;2023-07-09T14:16:08;4.07;;;3.30;;
16262;SDS011;8239;48.594;8.598;2023-07-09T14:18:57;5.68;;;3.35;;
16262;SDS011;8239;48.594;8.598;2023-07-09T14:23:55;3.90;;;3.35;;
16262;SDS011;8239;48.594;8.598;2023-07-09T14:26:22;3.42;;;3.13;;
16262;SDS011;8239;48.594;8.598;2023-07-09T14:28:51;4.22;;;3.22;;
16262;SDS011;8239;48.594;8.598;2023-07-09T14:31:19;3.50;;;3.20;;
16262;SDS011;8239;48.594;8.598;2023-07-09T14:33:49;3.90;;;3.22;;
16262;SDS011;8239;48.594;8.598;2023-07-09T14:36:16;3.75;;;3.22;;
16262;SDS011;8239;48.594;8.598;2023-07-09T14:38:43;3.58;;;3.28;;
16262;SDS011;8239;48.594;8.598;2023-07-09T14:41:17;3.28;;;3.08;;
16262;SDS011;8239;48.594;8.598;2023-07-09T14:43:47;4.03;;;3.17;;
16262;SDS011;8239;48.594;8.598;2023-07-09T14:46:16;4.40;;;3.30;;
16262;SDS011;8239;48.594;8.598;2023-07-09T14:48:43;3.65;;;3.33;;
16262;SDS011;8239;48.594;8.598;2023-07-09T14:51:12;4.95;;;3.33;;
16262;SDS011;8239;48.594;8.598;2023-07-09T14:53:41;3.47;;;3.17;;
16262;SDS011;8239;48.594;8.598;2023-07-09T14:56:09;4.32;;;3.40;;
16262;SDS011;8239;48.594;8.598;2023-07-09T14:58:39;4.28;;;3.50;;
16262;SDS011;8239;48.594;8.598;2023-07-09T15:01:09;4.10;;;3.17;;
16262;SDS011;8239;48.594;8.598;2023-07-09T15:03:39;3.83;;;3.53;;
16262;SDS011;8239;48.594;8.598;2023-07-09T15:06:09;3.40;;;3.10;;
16262;SDS011;8239;48.594;8.598;2023-07-09T15:08:38;4.30;;;3.60;;
16262;SDS011;8239;48.594;8.598;2023-07-09T15:11:05;4.30;;;3.90;;
16262;SDS011;8239;48.594;8.598;2023-07-09T15:13:32;6.75;;;5.68;;
16262;SDS011;8239;48.594;8.598;2023-07-09T15:16:02;3.88;;;3.40;;
16262;SDS011;8239;48.594;8.598;2023-07-09T15:18:30;5.00;;;3.70;;
16262;SDS011;8239;48.594;8.598;2023-07-09T15:21:01;5.15;;;3.45;;
16262;SDS011;8239;48.594;8.598;2023-07-09T15:23:30;3.58;;;3.28;;
16262;SDS011;8239;48.594;8.598;2023-07-09T15:26:00;4.13;;;3.28;;
16262;SDS011;8239;48.594;8.598;2023-07-09T15:28:27;6.22;;;3.55;;